Salt River (Missouri), Center (05507800)

StateMissouriCurrentUnknown (59 cfs)
RiverSalt RiverFlood - The river is flooding. Obstacles can be treacherous or deadly. The river should be avoided at this stage for casual trips and definitely for the inexperienced. Trips should be attempted only with protective gear and equipment.Flood(none)
Updated2019-10-13 19:00 (45 minutes ago)High - The river is high and potentially dangerous, especially for the young and / or inexperienced. Normal stream obstacles are sometimes difficult to navigate. Extended distances can be attempted, but canoe travel may not be advisable.High6000
Discharge59 cfs (median: 65 cfs)Good - Conditions are ideal for a canoe or kayak. Boats typically will drag on fewer than one-quarter of riffles, if at all, and portages are unnecessary or rare. Normal float lengths can be attempted without a problem.Good1500
Height1.99 feetLow - River is low but can still be floated. Some riffles are okay but most come with significant dragging and might need a portage. Float lengths should be reduced to accommodate low flow, dragging, and portages.Low(none)
TrendSteady (falling over 24 hours)Poor - River is too low to float comfortably. Most or all riffles will drag or must be portaged and some obstacles (such as slick shelf rock) cause undue problems. Avoid the river at this stage for casual paddling trips.Poor(none)
USGSExternal icon USGS Site for Center (05507800)LocationExternal icon Google Maps

Trending Data

Plot Image
ObservationHeightDischargeMaximum
Discharge
Minimum
Discharge
Mean
Discharge
P05P10P20P25P50
(Median)
P75P80P90P95
2019-10-13 19:00 1.99 59 11700 (1994) 1 (1980) 978 14 20 42 49 65 434 975 4610 5040
2019-10-13 18:30 1.99 59 11700 (1994) 1 (1980) 978 14 20 42 49 65 434 975 4610 5040
2019-10-13 18:00 1.99 59 11700 (1994) 1 (1980) 978 14 20 42 49 65 434 975 4610 5040
2019-10-13 17:30 1.99 59 11700 (1994) 1 (1980) 978 14 20 42 49 65 434 975 4610 5040
2019-10-13 17:00 1.99 59 11700 (1994) 1 (1980) 978 14 20 42 49 65 434 975 4610 5040
2019-10-13 16:30 1.99 59 11700 (1994) 1 (1980) 978 14 20 42 49 65 434 975 4610 5040
2019-10-13 16:00 1.99 59 11700 (1994) 1 (1980) 978 14 20 42 49 65 434 975 4610 5040
2019-10-13 15:30 1.99 59 11700 (1994) 1 (1980) 978 14 20 42 49 65 434 975 4610 5040
2019-10-13 15:00 1.99 59 11700 (1994) 1 (1980) 978 14 20 42 49 65 434 975 4610 5040
2019-10-13 14:30 1.99 59 11700 (1994) 1 (1980) 978 14 20 42 49 65 434 975 4610 5040
2019-10-13 14:00 1.99 59 11700 (1994) 1 (1980) 978 14 20 42 49 65 434 975 4610 5040
2019-10-13 13:30 1.99 59 11700 (1994) 1 (1980) 978 14 20 42 49 65 434 975 4610 5040
2019-10-13 13:00 2.00 61 11700 (1994) 1 (1980) 978 14 20 42 49 65 434 975 4610 5040
2019-10-13 12:30 2.00 61 11700 (1994) 1 (1980) 978 14 20 42 49 65 434 975 4610 5040
2019-10-13 12:00 1.99 59 11700 (1994) 1 (1980) 978 14 20 42 49 65 434 975 4610 5040
2019-10-13 11:30 2.00 61 11700 (1994) 1 (1980) 978 14 20 42 49 65 434 975 4610 5040
2019-10-13 11:00 2.00 61 11700 (1994) 1 (1980) 978 14 20 42 49 65 434 975 4610 5040
2019-10-13 10:30 2.00 61 11700 (1994) 1 (1980) 978 14 20 42 49 65 434 975 4610 5040
2019-10-13 10:00 2.00 61 11700 (1994) 1 (1980) 978 14 20 42 49 65 434 975 4610 5040
2019-10-13 09:30 2.00 61 11700 (1994) 1 (1980) 978 14 20 42 49 65 434 975 4610 5040
2019-10-13 09:00 2.01 63 11700 (1994) 1 (1980) 978 14 20 42 49 65 434 975 4610 5040
2019-10-13 08:30 2.01 63 11700 (1994) 1 (1980) 978 14 20 42 49 65 434 975 4610 5040
2019-10-13 08:00 2.01 63 11700 (1994) 1 (1980) 978 14 20 42 49 65 434 975 4610 5040
2019-10-13 07:30 2.01 63 11700 (1994) 1 (1980) 978 14 20 42 49 65 434 975 4610 5040
2019-10-13 07:00 2.01 63 11700 (1994) 1 (1980) 978 14 20 42 49 65 434 975 4610 5040
2019-10-13 06:30 2.00 61 11700 (1994) 1 (1980) 978 14 20 42 49 65 434 975 4610 5040
2019-10-13 06:00 2.00 61 11700 (1994) 1 (1980) 978 14 20 42 49 65 434 975 4610 5040
2019-10-13 05:30 2.00 61 11700 (1994) 1 (1980) 978 14 20 42 49 65 434 975 4610 5040
2019-10-13 05:00 2.00 61 11700 (1994) 1 (1980) 978 14 20 42 49 65 434 975 4610 5040
2019-10-13 04:30 2.01 63 11700 (1994) 1 (1980) 978 14 20 42 49 65 434 975 4610 5040
2019-10-13 04:00 2.01 63 11700 (1994) 1 (1980) 978 14 20 42 49 65 434 975 4610 5040
2019-10-13 03:30 2.01 63 11700 (1994) 1 (1980) 978 14 20 42 49 65 434 975 4610 5040
2019-10-13 03:00 2.00 61 11700 (1994) 1 (1980) 978 14 20 42 49 65 434 975 4610 5040
2019-10-13 02:30 2.00 61 11700 (1994) 1 (1980) 978 14 20 42 49 65 434 975 4610 5040
2019-10-13 02:00 2.00 61 11700 (1994) 1 (1980) 978 14 20 42 49 65 434 975 4610 5040
2019-10-13 01:30 2.00 61 11700 (1994) 1 (1980) 978 14 20 42 49 65 434 975 4610 5040
2019-10-13 01:00 2.01 63 11700 (1994) 1 (1980) 978 14 20 42 49 65 434 975 4610 5040
2019-10-13 00:30 2.01 63 11700 (1994) 1 (1980) 978 14 20 42 49 65 434 975 4610 5040
2019-10-13 00:00 2.00 61 11700 (1994) 1 (1980) 978 14 20 42 49 65 434 975 4610 5040
2019-10-12 23:30 2.01 63 11700 (1994) 1 (1980) 1100 15 22 52 56 65 885 1740 3320 7420
2019-10-12 23:00 2.01 63 11700 (1994) 1 (1980) 1100 15 22 52 56 65 885 1740 3320 7420
2019-10-12 22:30 2.01 63 11700 (1994) 1 (1980) 1100 15 22 52 56 65 885 1740 3320 7420
2019-10-12 22:00 2.00 61 11700 (1994) 1 (1980) 1100 15 22 52 56 65 885 1740 3320 7420
2019-10-12 21:30 2.01 63 11700 (1994) 1 (1980) 1100 15 22 52 56 65 885 1740 3320 7420
2019-10-12 21:00 2.00 61 11700 (1994) 1 (1980) 1100 15 22 52 56 65 885 1740 3320 7420
2019-10-12 20:30 2.00 61 11700 (1994) 1 (1980) 1100 15 22 52 56 65 885 1740 3320 7420
2019-10-12 20:00 2.00 61 11700 (1994) 1 (1980) 1100 15 22 52 56 65 885 1740 3320 7420
2019-10-12 19:30 2.01 63 11700 (1994) 1 (1980) 1100 15 22 52 56 65 885 1740 3320 7420
2019-10-12 19:00 2.00 61 11700 (1994) 1 (1980) 1100 15 22 52 56 65 885 1740 3320 7420
2019-10-12 18:30 2.00 61 11700 (1994) 1 (1980) 1100 15 22 52 56 65 885 1740 3320 7420
2019-10-12 18:00 2.00 61 11700 (1994) 1 (1980) 1100 15 22 52 56 65 885 1740 3320 7420
2019-10-12 17:30 2.00 61 11700 (1994) 1 (1980) 1100 15 22 52 56 65 885 1740 3320 7420
2019-10-12 17:00 2.00 61 11700 (1994) 1 (1980) 1100 15 22 52 56 65 885 1740 3320 7420
2019-10-12 16:30 2.00 61 11700 (1994) 1 (1980) 1100 15 22 52 56 65 885 1740 3320 7420
2019-10-12 16:00 2.00 61 11700 (1994) 1 (1980) 1100 15 22 52 56 65 885 1740 3320 7420
2019-10-12 15:30 2.01 63 11700 (1994) 1 (1980) 1100 15 22 52 56 65 885 1740 3320 7420
2019-10-12 15:00 2.02 64 11700 (1994) 1 (1980) 1100 15 22 52 56 65 885 1740 3320 7420
2019-10-12 14:30 2.02 64 11700 (1994) 1 (1980) 1100 15 22 52 56 65 885 1740 3320 7420
2019-10-12 14:00 2.02 64 11700 (1994) 1 (1980) 1100 15 22 52 56 65 885 1740 3320 7420
2019-10-12 13:30 2.02 64 11700 (1994) 1 (1980) 1100 15 22 52 56 65 885 1740 3320 7420
2019-10-12 13:00 2.03 66 11700 (1994) 1 (1980) 1100 15 22 52 56 65 885 1740 3320 7420
2019-10-12 12:30 2.03 66 11700 (1994) 1 (1980) 1100 15 22 52 56 65 885 1740 3320 7420
2019-10-12 12:00 2.03 66 11700 (1994) 1 (1980) 1100 15 22 52 56 65 885 1740 3320 7420
2019-10-12 11:30 2.04 68 11700 (1994) 1 (1980) 1100 15 22 52 56 65 885 1740 3320 7420
2019-10-12 11:00 2.04 68 11700 (1994) 1 (1980) 1100 15 22 52 56 65 885 1740 3320 7420
2019-10-12 10:30 2.05 70 11700 (1994) 1 (1980) 1100 15 22 52 56 65 885 1740 3320 7420
2019-10-12 10:00 2.05 70 11700 (1994) 1 (1980) 1100 15 22 52 56 65 885 1740 3320 7420
2019-10-12 09:30 2.06 71 11700 (1994) 1 (1980) 1100 15 22 52 56 65 885 1740 3320 7420
2019-10-12 09:00 2.08 75 11700 (1994) 1 (1980) 1100 15 22 52 56 65 885 1740 3320 7420
2019-10-12 08:30 2.09 77 11700 (1994) 1 (1980) 1100 15 22 52 56 65 885 1740 3320 7420
2019-10-12 08:00 2.11 81 11700 (1994) 1 (1980) 1100 15 22 52 56 65 885 1740 3320 7420
2019-10-12 07:30 2.13 84 11700 (1994) 1 (1980) 1100 15 22 52 56 65 885 1740 3320 7420
2019-10-12 07:00 2.16 90 11700 (1994) 1 (1980) 1100 15 22 52 56 65 885 1740 3320 7420
2019-10-12 06:30 2.20 99 11700 (1994) 1 (1980) 1100 15 22 52 56 65 885 1740 3320 7420
2019-10-12 06:00 2.24 107 11700 (1994) 1 (1980) 1100 15 22 52 56 65 885 1740 3320 7420
2019-10-12 05:30 2.30 120 11700 (1994) 1 (1980) 1100 15 22 52 56 65 885 1740 3320 7420
2019-10-12 05:00 2.37 136 11700 (1994) 1 (1980) 1100 15 22 52 56 65 885 1740 3320 7420
2019-10-12 04:30 2.46 158 11700 (1994) 1 (1980) 1100 15 22 52 56 65 885 1740 3320 7420
2019-10-12 04:00 2.57 187 11700 (1994) 1 (1980) 1100 15 22 52 56 65 885 1740 3320 7420
2019-10-12 03:30 2.70 224 11700 (1994) 1 (1980) 1100 15 22 52 56 65 885 1740 3320 7420
2019-10-12 03:00 2.88 279 11700 (1994) 1 (1980) 1100 15 22 52 56 65 885 1740 3320 7420
2019-10-12 02:30 3.11 358 11700 (1994) 1 (1980) 1100 15 22 52 56 65 885 1740 3320 7420
2019-10-12 02:00 3.43 479 11700 (1994) 1 (1980) 1100 15 22 52 56 65 885 1740 3320 7420
2019-10-12 01:30 3.87 671 11700 (1994) 1 (1980) 1100 15 22 52 56 65 885 1740 3320 7420
2019-10-12 01:00 4.60 1050 11700 (1994) 1 (1980) 1100 15 22 52 56 65 885 1740 3320 7420
2019-10-12 00:30 4.59 1040 11700 (1994) 1 (1980) 1100 15 22 52 56 65 885 1740 3320 7420
2019-10-12 00:00 4.56 1020 11700 (1994) 1 (1980) 1100 15 22 52 56 65 885 1740 3320 7420
2019-10-11 23:30 4.53 1010 11600 (1994) 1 (1980) 1170 14 16 48 57 67 1290 1950 4760 6600
2019-10-11 23:00 4.48 979 11600 (1994) 1 (1980) 1170 14 16 48 57 67 1290 1950 4760 6600
2019-10-11 22:30 4.40 936 11600 (1994) 1 (1980) 1170 14 16 48 57 67 1290 1950 4760 6600
2019-10-11 22:00 4.29 878 11600 (1994) 1 (1980) 1170 14 16 48 57 67 1290 1950 4760 6600
2019-10-11 21:30 4.10 781 11600 (1994) 1 (1980) 1170 14 16 48 57 67 1290 1950 4760 6600
2019-10-11 21:00 3.84 657 11600 (1994) 1 (1980) 1170 14 16 48 57 67 1290 1950 4760 6600
2019-10-11 20:30 3.25 409 11600 (1994) 1 (1980) 1170 14 16 48 57 67 1290 1950 4760 6600
2019-10-11 20:00 1.98 57 11600 (1994) 1 (1980) 1170 14 16 48 57 67 1290 1950 4760 6600
2019-10-11 19:30 1.97 56 11600 (1994) 1 (1980) 1170 14 16 48 57 67 1290 1950 4760 6600
2019-10-11 19:00 1.97 56 11600 (1994) 1 (1980) 1170 14 16 48 57 67 1290 1950 4760 6600
2019-10-11 18:30 1.97 56 11600 (1994) 1 (1980) 1170 14 16 48 57 67 1290 1950 4760 6600
2019-10-11 18:00 1.97 56 11600 (1994) 1 (1980) 1170 14 16 48 57 67 1290 1950 4760 6600
2019-10-11 17:30 1.97 56 11600 (1994) 1 (1980) 1170 14 16 48 57 67 1290 1950 4760 6600
2019-10-11 17:00 1.97 56 11600 (1994) 1 (1980) 1170 14 16 48 57 67 1290 1950 4760 6600
2019-10-11 16:30 1.97 56 11600 (1994) 1 (1980) 1170 14 16 48 57 67 1290 1950 4760 6600
2019-10-11 16:00 1.97 56 11600 (1994) 1 (1980) 1170 14 16 48 57 67 1290 1950 4760 6600
2019-10-11 15:30 1.98 57 11600 (1994) 1 (1980) 1170 14 16 48 57 67 1290 1950 4760 6600
2019-10-11 15:00 1.97 56 11600 (1994) 1 (1980) 1170 14 16 48 57 67 1290 1950 4760 6600
2019-10-11 14:30 1.97 56 11600 (1994) 1 (1980) 1170 14 16 48 57 67 1290 1950 4760 6600
2019-10-11 14:00 1.98 57 11600 (1994) 1 (1980) 1170 14 16 48 57 67 1290 1950 4760 6600
2019-10-11 13:30 1.97 56 11600 (1994) 1 (1980) 1170 14 16 48 57 67 1290 1950 4760 6600
2019-10-11 13:00 1.98 57 11600 (1994) 1 (1980) 1170 14 16 48 57 67 1290 1950 4760 6600
2019-10-11 12:30 1.97 56 11600 (1994) 1 (1980) 1170 14 16 48 57 67 1290 1950 4760 6600
2019-10-11 12:00 1.98 57 11600 (1994) 1 (1980) 1170 14 16 48 57 67 1290 1950 4760 6600
2019-10-11 11:30 1.98 57 11600 (1994) 1 (1980) 1170 14 16 48 57 67 1290 1950 4760 6600
2019-10-11 11:00 1.97 56 11600 (1994) 1 (1980) 1170 14 16 48 57 67 1290 1950 4760 6600
2019-10-11 10:30 1.98 57 11600 (1994) 1 (1980) 1170 14 16 48 57 67 1290 1950 4760 6600
2019-10-11 10:00 1.99 59 11600 (1994) 1 (1980) 1170 14 16 48 57 67 1290 1950 4760 6600
2019-10-11 09:30 1.98 57 11600 (1994) 1 (1980) 1170 14 16 48 57 67 1290 1950 4760 6600
2019-10-11 09:00 1.98 57 11600 (1994) 1 (1980) 1170 14 16 48 57 67 1290 1950 4760 6600
2019-10-11 08:30 1.98 57 11600 (1994) 1 (1980) 1170 14 16 48 57 67 1290 1950 4760 6600
2019-10-11 08:00 1.98 57 11600 (1994) 1 (1980) 1170 14 16 48 57 67 1290 1950 4760 6600
2019-10-11 07:30 1.98 57 11600 (1994) 1 (1980) 1170 14 16 48 57 67 1290 1950 4760 6600
2019-10-11 07:00 1.98 57 11600 (1994) 1 (1980) 1170 14 16 48 57 67 1290 1950 4760 6600
2019-10-11 06:30 1.98 57 11600 (1994) 1 (1980) 1170 14 16 48 57 67 1290 1950 4760 6600
2019-10-11 06:00 1.98 57 11600 (1994) 1 (1980) 1170 14 16 48 57 67 1290 1950 4760 6600
2019-10-11 05:30 1.98 57 11600 (1994) 1 (1980) 1170 14 16 48 57 67 1290 1950 4760 6600
2019-10-11 05:00 1.98 57 11600 (1994) 1 (1980) 1170 14 16 48 57 67 1290 1950 4760 6600
2019-10-11 04:30 1.98 57 11600 (1994) 1 (1980) 1170 14 16 48 57 67 1290 1950 4760 6600
2019-10-11 04:00 1.98 57 11600 (1994) 1 (1980) 1170 14 16 48 57 67 1290 1950 4760 6600
2019-10-11 03:30 1.98 57 11600 (1994) 1 (1980) 1170 14 16 48 57 67 1290 1950 4760 6600
2019-10-11 03:00 1.98 57 11600 (1994) 1 (1980) 1170 14 16 48 57 67 1290 1950 4760 6600
2019-10-11 02:30 1.98 57 11600 (1994) 1 (1980) 1170 14 16 48 57 67 1290 1950 4760 6600
2019-10-11 02:00 1.98 57 11600 (1994) 1 (1980) 1170 14 16 48 57 67 1290 1950 4760 6600
2019-10-11 01:30 1.97 56 11600 (1994) 1 (1980) 1170 14 16 48 57 67 1290 1950 4760 6600
2019-10-11 01:00 1.98 57 11600 (1994) 1 (1980) 1170 14 16 48 57 67 1290 1950 4760 6600
2019-10-11 00:30 1.98 57 11600 (1994) 1 (1980) 1170 14 16 48 57 67 1290 1950 4760 6600
2019-10-11 00:00 1.98 57 11600 (1994) 1 (1980) 1170 14 16 48 57 67 1290 1950 4760 6600
2019-10-10 23:30 1.98 57 11600 (1994) 1 (1980) 1180 17 22 50 57 74 1040 1380 4770 8140
2019-10-10 23:00 1.99 59 11600 (1994) 1 (1980) 1180 17 22 50 57 74 1040 1380 4770 8140
2019-10-10 22:30 1.99 59 11600 (1994) 1 (1980) 1180 17 22 50 57 74 1040 1380 4770 8140
2019-10-10 22:00 1.99 59 11600 (1994) 1 (1980) 1180 17 22 50 57 74 1040 1380 4770 8140
2019-10-10 21:30 1.99 59 11600 (1994) 1 (1980) 1180 17 22 50 57 74 1040 1380 4770 8140
2019-10-10 21:00 1.99 59 11600 (1994) 1 (1980) 1180 17 22 50 57 74 1040 1380 4770 8140
2019-10-10 20:30 1.99 59 11600 (1994) 1 (1980) 1180 17 22 50 57 74 1040 1380 4770 8140
2019-10-10 20:00 2.00 61 11600 (1994) 1 (1980) 1180 17 22 50 57 74 1040 1380 4770 8140
2019-10-10 19:30 2.00 61 11600 (1994) 1 (1980) 1180 17 22 50 57 74 1040 1380 4770 8140
2019-10-10 19:00 2.00 61 11600 (1994) 1 (1980) 1180 17 22 50 57 74 1040 1380 4770 8140
2019-10-10 18:30 2.00 61 11600 (1994) 1 (1980) 1180 17 22 50 57 74 1040 1380 4770 8140
2019-10-10 18:00 2.01 63 11600 (1994) 1 (1980) 1180 17 22 50 57 74 1040 1380 4770 8140
2019-10-10 17:30 2.02 64 11600 (1994) 1 (1980) 1180 17 22 50 57 74 1040 1380 4770 8140
2019-10-10 17:00 2.03 66 11600 (1994) 1 (1980) 1180 17 22 50 57 74 1040 1380 4770 8140
2019-10-10 16:30 2.04 68 11600 (1994) 1 (1980) 1180 17 22 50 57 74 1040 1380 4770 8140
2019-10-10 16:00 2.06 71 11600 (1994) 1 (1980) 1180 17 22 50 57 74 1040 1380 4770 8140
2019-10-10 15:30 2.09 77 11600 (1994) 1 (1980) 1180 17 22 50 57 74 1040 1380 4770 8140
2019-10-10 15:00 2.11 81 11600 (1994) 1 (1980) 1180 17 22 50 57 74 1040 1380 4770 8140
2019-10-10 14:30 2.14 86 11600 (1994) 1 (1980) 1180 17 22 50 57 74 1040 1380 4770 8140
2019-10-10 14:00 2.19 96 11600 (1994) 1 (1980) 1180 17 22 50 57 74 1040 1380 4770 8140
2019-10-10 13:30 2.24 107 11600 (1994) 1 (1980) 1180 17 22 50 57 74 1040 1380 4770 8140
2019-10-10 13:00 2.32 125 11600 (1994) 1 (1980) 1180 17 22 50 57 74 1040 1380 4770 8140
2019-10-10 12:30 2.41 146 11600 (1994) 1 (1980) 1180 17 22 50 57 74 1040 1380 4770 8140
2019-10-10 12:00 2.51 171 11600 (1994) 1 (1980) 1180 17 22 50 57 74 1040 1380 4770 8140
2019-10-10 11:30 2.65 210 11600 (1994) 1 (1980) 1180 17 22 50 57 74 1040 1380 4770 8140
2019-10-10 11:00 2.81 257 11600 (1994) 1 (1980) 1180 17 22 50 57 74 1040 1380 4770 8140
2019-10-10 10:30 3.00 319 11600 (1994) 1 (1980) 1180 17 22 50 57 74 1040 1380 4770 8140
2019-10-10 10:00 3.25 409 11600 (1994) 1 (1980) 1180 17 22 50 57 74 1040 1380 4770 8140
2019-10-10 09:30 3.60 550 11600 (1994) 1 (1980) 1180 17 22 50 57 74 1040 1380 4770 8140
2019-10-10 09:00 4.08 771 11600 (1994) 1 (1980) 1180 17 22 50 57 74 1040 1380 4770 8140
2019-10-10 08:30 4.66 1080 11600 (1994) 1 (1980) 1180 17 22 50 57 74 1040 1380 4770 8140
2019-10-10 08:00 4.67 1090 11600 (1994) 1 (1980) 1180 17 22 50 57 74 1040 1380 4770 8140
2019-10-10 07:30 4.67 1090 11600 (1994) 1 (1980) 1180 17 22 50 57 74 1040 1380 4770 8140
2019-10-10 07:00 4.67 1090 11600 (1994) 1 (1980) 1180 17 22 50 57 74 1040 1380 4770 8140
2019-10-10 06:30 4.68 1090 11600 (1994) 1 (1980) 1180 17 22 50 57 74 1040 1380 4770 8140
2019-10-10 06:00 4.69 1100 11600 (1994) 1 (1980) 1180 17 22 50 57 74 1040 1380 4770 8140
2019-10-10 05:30 4.69 1100 11600 (1994) 1 (1980) 1180 17 22 50 57 74 1040 1380 4770 8140
2019-10-10 05:00 4.71 1110 11600 (1994) 1 (1980) 1180 17 22 50 57 74 1040 1380 4770 8140
2019-10-10 04:30 4.71 1110 11600 (1994) 1 (1980) 1180 17 22 50 57 74 1040 1380 4770 8140
2019-10-10 04:00 4.72 1110 11600 (1994) 1 (1980) 1180 17 22 50 57 74 1040 1380 4770 8140
2019-10-10 03:30 4.73 1120 11600 (1994) 1 (1980) 1180 17 22 50 57 74 1040 1380 4770 8140
2019-10-10 03:00 4.75 1130 11600 (1994) 1 (1980) 1180 17 22 50 57 74 1040 1380 4770 8140
2019-10-10 02:30 4.77 1140 11600 (1994) 1 (1980) 1180 17 22 50 57 74 1040 1380 4770 8140
2019-10-10 02:00 4.79 1150 11600 (1994) 1 (1980) 1180 17 22 50 57 74 1040 1380 4770 8140
2019-10-10 01:30 4.82 1170 11600 (1994) 1 (1980) 1180 17 22 50 57 74 1040 1380 4770 8140
2019-10-10 01:00 4.87 1200 11600 (1994) 1 (1980) 1180 17 22 50 57 74 1040 1380 4770 8140
2019-10-10 00:30 4.93 1240 11600 (1994) 1 (1980) 1180 17 22 50 57 74 1040 1380 4770 8140
2019-10-10 00:00 5.03 1300 11600 (1994) 1 (1980) 1180 17 22 50 57 74 1040 1380 4770 8140
2019-10-09 23:30 5.16 1390 11100 (1994) 5 (1980) 1040 18 24 55 58 99 740 1380 2620 9430
2019-10-09 23:00 5.38 1550 11100 (1994) 5 (1980) 1040 18 24 55 58 99 740 1380 2620 9430
2019-10-09 22:30 5.75 1830 11100 (1994) 5 (1980) 1040 18 24 55 58 99 740 1380 2620 9430
2019-10-09 22:00 6.01 2040 11100 (1994) 5 (1980) 1040 18 24 55 58 99 740 1380 2620 9430
2019-10-09 21:30 6.01 2040 11100 (1994) 5 (1980) 1040 18 24 55 58 99 740 1380 2620 9430
2019-10-09 21:00 6.02 2050 11100 (1994) 5 (1980) 1040 18 24 55 58 99 740 1380 2620 9430
2019-10-09 20:30 6.02 2050 11100 (1994) 5 (1980) 1040 18 24 55 58 99 740 1380 2620 9430
2019-10-09 20:00 6.02 2050 11100 (1994) 5 (1980) 1040 18 24 55 58 99 740 1380 2620 9430
2019-10-09 19:30 6.00 2030 11100 (1994) 5 (1980) 1040 18 24 55 58 99 740 1380 2620 9430
2019-10-09 19:00 5.98 2010 11100 (1994) 5 (1980) 1040 18 24 55 58 99 740 1380 2620 9430
2019-10-09 18:30 5.95 1990 11100 (1994) 5 (1980) 1040 18 24 55 58 99 740 1380 2620 9430
2019-10-09 18:00 5.88 1930 11100 (1994) 5 (1980) 1040 18 24 55 58 99 740 1380 2620 9430
2019-10-09 17:30 5.79 1860 11100 (1994) 5 (1980) 1040 18 24 55 58 99 740 1380 2620 9430
2019-10-09 17:00 5.62 1730 11100 (1994) 5 (1980) 1040 18 24 55 58 99 740 1380 2620 9430
2019-10-09 16:30 5.33 1510 11100 (1994) 5 (1980) 1040 18 24 55 58 99 740 1380 2620 9430
2019-10-09 16:00 4.82 1170 11100 (1994) 5 (1980) 1040 18 24 55 58 99 740 1380 2620 9430
2019-10-09 15:30 3.52 516 11100 (1994) 5 (1980) 1040 18 24 55 58 99 740 1380 2620 9430
2019-10-09 15:00 2.17 92 11100 (1994) 5 (1980) 1040 18 24 55 58 99 740 1380 2620 9430
2019-10-09 14:30 2.17 92 11100 (1994) 5 (1980) 1040 18 24 55 58 99 740 1380 2620 9430
2019-10-09 14:00 2.17 92 11100 (1994) 5 (1980) 1040 18 24 55 58 99 740 1380 2620 9430
2019-10-09 13:30 2.17 92 11100 (1994) 5 (1980) 1040 18 24 55 58 99 740 1380 2620 9430
2019-10-09 13:00 2.17 92 11100 (1994) 5 (1980) 1040 18 24 55 58 99 740 1380 2620 9430
2019-10-09 12:30 2.17 92 11100 (1994) 5 (1980) 1040 18 24 55 58 99 740 1380 2620 9430
2019-10-09 12:00 2.17 92 11100 (1994) 5 (1980) 1040 18 24 55 58 99 740 1380 2620 9430
2019-10-09 11:30 2.17 92 11100 (1994) 5 (1980) 1040 18 24 55 58 99 740 1380 2620 9430
2019-10-09 11:00 2.18 94 11100 (1994) 5 (1980) 1040 18 24 55 58 99 740 1380 2620 9430
2019-10-09 10:30 2.18 94 11100 (1994) 5 (1980) 1040 18 24 55 58 99 740 1380 2620 9430
2019-10-09 10:00 2.18 94 11100 (1994) 5 (1980) 1040 18 24 55 58 99 740 1380 2620 9430
2019-10-09 09:30 2.19 96 11100 (1994) 5 (1980) 1040 18 24 55 58 99 740 1380 2620 9430
2019-10-09 09:00 2.19 96 11100 (1994) 5 (1980) 1040 18 24 55 58 99 740 1380 2620 9430
2019-10-09 08:30 2.19 96 11100 (1994) 5 (1980) 1040 18 24 55 58 99 740 1380 2620 9430
2019-10-09 08:00 2.20 99 11100 (1994) 5 (1980) 1040 18 24 55 58 99 740 1380 2620 9430
2019-10-09 07:30 2.20 99 11100 (1994) 5 (1980) 1040 18 24 55 58 99 740 1380 2620 9430
2019-10-09 07:00 2.19 96 11100 (1994) 5 (1980) 1040 18 24 55 58 99 740 1380 2620 9430
2019-10-09 06:30 2.20 99 11100 (1994) 5 (1980) 1040 18 24 55 58 99 740 1380 2620 9430
2019-10-09 06:00 2.20 99 11100 (1994) 5 (1980) 1040 18 24 55 58 99 740 1380 2620 9430
2019-10-09 05:30 2.21 101 11100 (1994) 5 (1980) 1040 18 24 55 58 99 740 1380 2620 9430
2019-10-09 05:00 2.21 101 11100 (1994) 5 (1980) 1040 18 24 55 58 99 740 1380 2620 9430
2019-10-09 04:30 2.22 103 11100 (1994) 5 (1980) 1040 18 24 55 58 99 740 1380 2620 9430
2019-10-09 04:00 2.23 105 11100 (1994) 5 (1980) 1040 18 24 55 58 99 740 1380 2620 9430
2019-10-09 03:30 2.24 107 11100 (1994) 5 (1980) 1040 18 24 55 58 99 740 1380 2620 9430
2019-10-09 03:00 2.26 111 11100 (1994) 5 (1980) 1040 18 24 55 58 99 740 1380 2620 9430
2019-10-09 02:30 2.28 116 11100 (1994) 5 (1980) 1040 18 24 55 58 99 740 1380 2620 9430
2019-10-09 02:00 2.31 122 11100 (1994) 5 (1980) 1040 18 24 55 58 99 740 1380 2620 9430
2019-10-09 01:30 2.34 129 11100 (1994) 5 (1980) 1040 18 24 55 58 99 740 1380 2620 9430
2019-10-09 01:00 2.38 139 11100 (1994) 5 (1980) 1040 18 24 55 58 99 740 1380 2620 9430
2019-10-09 00:30 2.44 153 11100 (1994) 5 (1980) 1040 18 24 55 58 99 740 1380 2620 9430
2019-10-09 00:00 2.51 171 11100 (1994) 5 (1980) 1040 18 24 55 58 99 740 1380 2620 9430
2019-10-08 23:30 2.60 196 11200 (2009) 7 (1980) 1300 18 25 48 51 69 1220 1990 3620 10800
2019-10-08 23:00 2.71 227 11200 (2009) 7 (1980) 1300 18 25 48 51 69 1220 1990 3620 10800
2019-10-08 22:30 2.85 270 11200 (2009) 7 (1980) 1300 18 25 48 51 69 1220 1990 3620 10800
2019-10-08 22:00 3.03 329 11200 (2009) 7 (1980) 1300 18 25 48 51 69 1220 1990 3620 10800
2019-10-08 21:30 3.28 420 11200 (2009) 7 (1980) 1300 18 25 48 51 69 1220 1990 3620 10800
2019-10-08 21:00 3.60 550 11200 (2009) 7 (1980) 1300 18 25 48 51 69 1220 1990 3620 10800
2019-10-08 20:30 4.01 737 11200 (2009) 7 (1980) 1300 18 25 48 51 69 1220 1990 3620 10800
2019-10-08 20:00 4.54 1010 11200 (2009) 7 (1980) 1300 18 25 48 51 69 1220 1990 3620 10800
2019-10-08 19:30 5.53 1660 11200 (2009) 7 (1980) 1300 18 25 48 51 69 1220 1990 3620 10800
2019-10-08 19:00 5.58 1700 11200 (2009) 7 (1980) 1300 18 25 48 51 69 1220 1990 3620 10800
2019-10-08 18:30 5.18 1400 11200 (2009) 7 (1980) 1300 18 25 48 51 69 1220 1990 3620 10800
2019-10-08 18:00 4.60 1050 11200 (2009) 7 (1980) 1300 18 25 48 51 69 1220 1990 3620 10800
2019-10-08 17:30 3.26 413 11200 (2009) 7 (1980) 1300 18 25 48 51 69 1220 1990 3620 10800
2019-10-08 17:00 1.99 59 11200 (2009) 7 (1980) 1300 18 25 48 51 69 1220 1990 3620 10800
2019-10-08 16:30 1.95 53 11200 (2009) 7 (1980) 1300 18 25 48 51 69 1220 1990 3620 10800
2019-10-08 16:00 1.93 49 11200 (2009) 7 (1980) 1300 18 25 48 51 69 1220 1990 3620 10800
2019-10-08 15:30 1.93 49 11200 (2009) 7 (1980) 1300 18 25 48 51 69 1220 1990 3620 10800
2019-10-08 15:00 1.93 49 11200 (2009) 7 (1980) 1300 18 25 48 51 69 1220 1990 3620 10800
2019-10-08 14:30 1.93 49 11200 (2009) 7 (1980) 1300 18 25 48 51 69 1220 1990 3620 10800
2019-10-08 14:00 1.93 49 11200 (2009) 7 (1980) 1300 18 25 48 51 69 1220 1990 3620 10800
2019-10-08 13:30 1.93 49 11200 (2009) 7 (1980) 1300 18 25 48 51 69 1220 1990 3620 10800
2019-10-08 13:00 1.93 49 11200 (2009) 7 (1980) 1300 18 25 48 51 69 1220 1990 3620 10800
2019-10-08 12:30 1.94 51 11200 (2009) 7 (1980) 1300 18 25 48 51 69 1220 1990 3620 10800
2019-10-08 12:00 1.93 49 11200 (2009) 7 (1980) 1300 18 25 48 51 69 1220 1990 3620 10800
2019-10-08 11:30 1.93 49 11200 (2009) 7 (1980) 1300 18 25 48 51 69 1220 1990 3620 10800
2019-10-08 11:00 1.94 51 11200 (2009) 7 (1980) 1300 18 25 48 51 69 1220 1990 3620 10800
2019-10-08 10:30 1.94 51 11200 (2009) 7 (1980) 1300 18 25 48 51 69 1220 1990 3620 10800
2019-10-08 10:00 1.94 51 11200 (2009) 7 (1980) 1300 18 25 48 51 69 1220 1990 3620 10800
2019-10-08 09:30 1.94 51 11200 (2009) 7 (1980) 1300 18 25 48 51 69 1220 1990 3620 10800
2019-10-08 09:00 1.95 53 11200 (2009) 7 (1980) 1300 18 25 48 51 69 1220 1990 3620 10800
2019-10-08 08:30 1.95 53 11200 (2009) 7 (1980) 1300 18 25 48 51 69 1220 1990 3620 10800
2019-10-08 08:00 1.95 53 11200 (2009) 7 (1980) 1300 18 25 48 51 69 1220 1990 3620 10800
2019-10-08 07:30 1.95 53 11200 (2009) 7 (1980) 1300 18 25 48 51 69 1220 1990 3620 10800
2019-10-08 07:00 1.95 53 11200 (2009) 7 (1980) 1300 18 25 48 51 69 1220 1990 3620 10800
2019-10-08 06:30 1.95 53 11200 (2009) 7 (1980) 1300 18 25 48 51 69 1220 1990 3620 10800
2019-10-08 06:00 1.95 53 11200 (2009) 7 (1980) 1300 18 25 48 51 69 1220 1990 3620 10800
2019-10-08 05:30 1.95 53 11200 (2009) 7 (1980) 1300 18 25 48 51 69 1220 1990 3620 10800
2019-10-08 05:00 1.95 53 11200 (2009) 7 (1980) 1300 18 25 48 51 69 1220 1990 3620 10800
2019-10-08 04:30 1.95 53 11200 (2009) 7 (1980) 1300 18 25 48 51 69 1220 1990 3620 10800
2019-10-08 04:00 1.95 53 11200 (2009) 7 (1980) 1300 18 25 48 51 69 1220 1990 3620 10800
2019-10-08 03:30 1.95 53 11200 (2009) 7 (1980) 1300 18 25 48 51 69 1220 1990 3620 10800
2019-10-08 03:00 1.95 53 11200 (2009) 7 (1980) 1300 18 25 48 51 69 1220 1990 3620 10800
2019-10-08 02:30 1.95 53 11200 (2009) 7 (1980) 1300 18 25 48 51 69 1220 1990 3620 10800
2019-10-08 02:00 1.95 53 11200 (2009) 7 (1980) 1300 18 25 48 51 69 1220 1990 3620 10800
2019-10-08 01:30 1.95 53 11200 (2009) 7 (1980) 1300 18 25 48 51 69 1220 1990 3620 10800
2019-10-08 01:00 1.95 53 11200 (2009) 7 (1980) 1300 18 25 48 51 69 1220 1990 3620 10800
2019-10-08 00:30 1.95 53 11200 (2009) 7 (1980) 1300 18 25 48 51 69 1220 1990 3620 10800
2019-10-08 00:00 1.95 53 11200 (2009) 7 (1980) 1300 18 25 48 51 69 1220 1990 3620 10800
2019-10-07 23:30 1.95 53 11600 (2009) 5 (1980) 1320 20 26 51 53 69 1420 1470 3890 11500
2019-10-07 23:00 1.95 53 11600 (2009) 5 (1980) 1320 20 26 51 53 69 1420 1470 3890 11500
2019-10-07 22:30 1.95 53 11600 (2009) 5 (1980) 1320 20 26 51 53 69 1420 1470 3890 11500
2019-10-07 22:00 1.95 53 11600 (2009) 5 (1980) 1320 20 26 51 53 69 1420 1470 3890 11500
2019-10-07 21:30 1.94 51 11600 (2009) 5 (1980) 1320 20 26 51 53 69 1420 1470 3890 11500
2019-10-07 21:00 1.94 51 11600 (2009) 5 (1980) 1320 20 26 51 53 69 1420 1470 3890 11500
2019-10-07 20:30 1.94 51 11600 (2009) 5 (1980) 1320 20 26 51 53 69 1420 1470 3890 11500
2019-10-07 20:00 1.94 51 11600 (2009) 5 (1980) 1320 20 26 51 53 69 1420 1470 3890 11500
2019-10-07 19:30 1.94 51 11600 (2009) 5 (1980) 1320 20 26 51 53 69 1420 1470 3890 11500
2019-10-07 19:00 1.94 51 11600 (2009) 5 (1980) 1320 20 26 51 53 69 1420 1470 3890 11500
2019-10-07 18:30 1.94 51 11600 (2009) 5 (1980) 1320 20 26 51 53 69 1420 1470 3890 11500
2019-10-07 18:00 1.94 51 11600 (2009) 5 (1980) 1320 20 26 51 53 69 1420 1470 3890 11500
2019-10-07 17:30 1.94 51 11600 (2009) 5 (1980) 1320 20 26 51 53 69 1420 1470 3890 11500
2019-10-07 17:00 1.94 51 11600 (2009) 5 (1980) 1320 20 26 51 53 69 1420 1470 3890 11500
2019-10-07 16:30 1.94 51 11600 (2009) 5 (1980) 1320 20 26 51 53 69 1420 1470 3890 11500
2019-10-07 16:00 1.88 42 11600 (2009) 5 (1980) 1320 20 26 51 53 69 1420 1470 3890 11500
2019-10-07 15:30 1.89 43 11600 (2009) 5 (1980) 1320 20 26 51 53 69 1420 1470 3890 11500
2019-10-07 15:00 1.89 43 11600 (2009) 5 (1980) 1320 20 26 51 53 69 1420 1470 3890 11500
2019-10-07 14:30 1.89 43 11600 (2009) 5 (1980) 1320 20 26 51 53 69 1420 1470 3890 11500
2019-10-07 14:00 1.88 42 11600 (2009) 5 (1980) 1320 20 26 51 53 69 1420 1470 3890 11500
2019-10-07 13:30 1.89 43 11600 (2009) 5 (1980) 1320 20 26 51 53 69 1420 1470 3890 11500
2019-10-07 13:00 1.88 42 11600 (2009) 5 (1980) 1320 20 26 51 53 69 1420 1470 3890 11500
2019-10-07 12:30 1.88 42 11600 (2009) 5 (1980) 1320 20 26 51 53 69 1420 1470 3890 11500
2019-10-07 12:00 1.89 43 11600 (2009) 5 (1980) 1320 20 26 51 53 69 1420 1470 3890 11500
2019-10-07 11:30 1.89 43 11600 (2009) 5 (1980) 1320 20 26 51 53 69 1420 1470 3890 11500
2019-10-07 11:00 1.89 43 11600 (2009) 5 (1980) 1320 20 26 51 53 69 1420 1470 3890 11500
2019-10-07 10:30 1.89 43 11600 (2009) 5 (1980) 1320 20 26 51 53 69 1420 1470 3890 11500
2019-10-07 10:00 1.89 43 11600 (2009) 5 (1980) 1320 20 26 51 53 69 1420 1470 3890 11500
2019-10-07 09:30 1.89 43 11600 (2009) 5 (1980) 1320 20 26 51 53 69 1420 1470 3890 11500
2019-10-07 09:00 1.89 43 11600 (2009) 5 (1980) 1320 20 26 51 53 69 1420 1470 3890 11500
2019-10-07 08:30 1.89 43 11600 (2009) 5 (1980) 1320 20 26 51 53 69 1420 1470 3890 11500
2019-10-07 08:00 1.89 43 11600 (2009) 5 (1980) 1320 20 26 51 53 69 1420 1470 3890 11500
2019-10-07 07:30 1.89 43 11600 (2009) 5 (1980) 1320 20 26 51 53 69 1420 1470 3890 11500
2019-10-07 07:00 1.90 45 11600 (2009) 5 (1980) 1320 20 26 51 53 69 1420 1470 3890 11500
2019-10-07 06:30 1.90 45 11600 (2009) 5 (1980) 1320 20 26 51 53 69 1420 1470 3890 11500
2019-10-07 06:00 1.90 45 11600 (2009) 5 (1980) 1320 20 26 51 53 69 1420 1470 3890 11500
2019-10-07 05:30 1.90 45 11600 (2009) 5 (1980) 1320 20 26 51 53 69 1420 1470 3890 11500
2019-10-07 05:00 1.89 43 11600 (2009) 5 (1980) 1320 20 26 51 53 69 1420 1470 3890 11500
2019-10-07 04:30 1.90 45 11600 (2009) 5 (1980) 1320 20 26 51 53 69 1420 1470 3890 11500
2019-10-07 04:00 1.90 45 11600 (2009) 5 (1980) 1320 20 26 51 53 69 1420 1470 3890 11500
2019-10-07 03:30 1.90 45 11600 (2009) 5 (1980) 1320 20 26 51 53 69 1420 1470 3890 11500
2019-10-07 03:00 1.90 45 11600 (2009) 5 (1980) 1320 20 26 51 53 69 1420 1470 3890 11500
2019-10-07 02:30 1.90 45 11600 (2009) 5 (1980) 1320 20 26 51 53 69 1420 1470 3890 11500
2019-10-07 02:00 1.90 45 11600 (2009) 5 (1980) 1320 20 26 51 53 69 1420 1470 3890 11500
2019-10-07 01:30 1.90 45 11600 (2009) 5 (1980) 1320 20 26 51 53 69 1420 1470 3890 11500
2019-10-07 01:00 1.90 45 11600 (2009) 5 (1980) 1320 20 26 51 53 69 1420 1470 3890 11500
2019-10-07 00:30 1.90 45 11600 (2009) 5 (1980) 1320 20 26 51 53 69 1420 1470 3890 11500
2019-10-07 00:00 1.90 45 11600 (2009) 5 (1980) 1320 20 26 51 53 69 1420 1470 3890 11500
2019-10-06 23:30 1.90 45 11800 (1994) 3 (1980) 1330 22 27 54 56 87 1000 1600 4050 10900
2019-10-06 23:00 1.90 45 11800 (1994) 3 (1980) 1330 22 27 54 56 87 1000 1600 4050 10900
2019-10-06 22:30 1.90 45 11800 (1994) 3 (1980) 1330 22 27 54 56 87 1000 1600 4050 10900
2019-10-06 22:00 1.90 45 11800 (1994) 3 (1980) 1330 22 27 54 56 87 1000 1600 4050 10900
2019-10-06 21:30 1.90 45 11800 (1994) 3 (1980) 1330 22 27 54 56 87 1000 1600 4050 10900
2019-10-06 21:00 1.90 45 11800 (1994) 3 (1980) 1330 22 27 54 56 87 1000 1600 4050 10900
2019-10-06 20:30 1.90 45 11800 (1994) 3 (1980) 1330 22 27 54 56 87 1000 1600 4050 10900
2019-10-06 20:00 1.90 45 11800 (1994) 3 (1980) 1330 22 27 54 56 87 1000 1600 4050 10900
2019-10-06 19:30 1.90 45 11800 (1994) 3 (1980) 1330 22 27 54 56 87 1000 1600 4050 10900
2019-10-06 19:00 1.90 45 11800 (1994) 3 (1980) 1330 22 27 54 56 87 1000 1600 4050 10900
2019-10-06 18:30 1.90 45 11800 (1994) 3 (1980) 1330 22 27 54 56 87 1000 1600 4050 10900
2019-10-06 18:00 1.90 45 11800 (1994) 3 (1980) 1330 22 27 54 56 87 1000 1600 4050 10900
2019-10-06 17:30 1.90 45 11800 (1994) 3 (1980) 1330 22 27 54 56 87 1000 1600 4050 10900
2019-10-06 17:00 1.90 45 11800 (1994) 3 (1980) 1330 22 27 54 56 87 1000 1600 4050 10900
2019-10-06 16:30 1.90 45 11800 (1994) 3 (1980) 1330 22 27 54 56 87 1000 1600 4050 10900
2019-10-06 16:00 1.90 45 11800 (1994) 3 (1980) 1330 22 27 54 56 87 1000 1600 4050 10900
2019-10-06 15:30 1.90 45 11800 (1994) 3 (1980) 1330 22 27 54 56 87 1000 1600 4050 10900
2019-10-06 15:00 1.90 45 11800 (1994) 3 (1980) 1330 22 27 54 56 87 1000 1600 4050 10900
2019-10-06 14:30 1.90 45 11800 (1994) 3 (1980) 1330 22 27 54 56 87 1000 1600 4050 10900
2019-10-06 14:00 1.90 45 11800 (1994) 3 (1980) 1330 22 27 54 56 87 1000 1600 4050 10900
2019-10-06 13:30 1.90 45 11800 (1994) 3 (1980) 1330 22 27 54 56 87 1000 1600 4050 10900
2019-10-06 13:00 1.90 45 11800 (1994) 3 (1980) 1330 22 27 54 56 87 1000 1600 4050 10900
2019-10-06 12:30 1.90 45 11800 (1994) 3 (1980) 1330 22 27 54 56 87 1000 1600 4050 10900
2019-10-06 12:00 1.90 45 11800 (1994) 3 (1980) 1330 22 27 54 56 87 1000 1600 4050 10900
2019-10-06 11:30 1.90 45 11800 (1994) 3 (1980) 1330 22 27 54 56 87 1000 1600 4050 10900
2019-10-06 11:00 1.90 45 11800 (1994) 3 (1980) 1330 22 27 54 56 87 1000 1600 4050 10900
2019-10-06 10:30 1.90 45 11800 (1994) 3 (1980) 1330 22 27 54 56 87 1000 1600 4050 10900
2019-10-06 10:00 1.90 45 11800 (1994) 3 (1980) 1330 22 27 54 56 87 1000 1600 4050 10900
2019-10-06 09:30 1.90 45 11800 (1994) 3 (1980) 1330 22 27 54 56 87 1000 1600 4050 10900
2019-10-06 09:00 1.91 46 11800 (1994) 3 (1980) 1330 22 27 54 56 87 1000 1600 4050 10900
2019-10-06 08:30 1.91 46 11800 (1994) 3 (1980) 1330 22 27 54 56 87 1000 1600 4050 10900
2019-10-06 08:00 1.90 45 11800 (1994) 3 (1980) 1330 22 27 54 56 87 1000 1600 4050 10900
2019-10-06 07:30 1.90 45 11800 (1994) 3 (1980) 1330 22 27 54 56 87 1000 1600 4050 10900
2019-10-06 07:00 1.90 45 11800 (1994) 3 (1980) 1330 22 27 54 56 87 1000 1600 4050 10900
2019-10-06 06:30 1.91 46 11800 (1994) 3 (1980) 1330 22 27 54 56 87 1000 1600 4050 10900
2019-10-06 06:00 1.91 46 11800 (1994) 3 (1980) 1330 22 27 54 56 87 1000 1600 4050 10900
2019-10-06 05:30 1.90 45 11800 (1994) 3 (1980) 1330 22 27 54 56 87 1000 1600 4050 10900
2019-10-06 05:00 1.91 46 11800 (1994) 3 (1980) 1330 22 27 54 56 87 1000 1600 4050 10900
2019-10-06 04:30 1.91 46 11800 (1994) 3 (1980) 1330 22 27 54 56 87 1000 1600 4050 10900
2019-10-06 04:00 1.90 45 11800 (1994) 3 (1980) 1330 22 27 54 56 87 1000 1600 4050 10900
2019-10-06 03:30 1.90 45 11800 (1994) 3 (1980) 1330 22 27 54 56 87 1000 1600 4050 10900
2019-10-06 03:00 1.90 45 11800 (1994) 3 (1980) 1330 22 27 54 56 87 1000 1600 4050 10900
2019-10-06 02:30 1.90 45 11800 (1994) 3 (1980) 1330 22 27 54 56 87 1000 1600 4050 10900
2019-10-06 02:00 1.90 45 11800 (1994) 3 (1980) 1330 22 27 54 56 87 1000 1600 4050 10900
2019-10-06 01:30 1.90 45 11800 (1994) 3 (1980) 1330 22 27 54 56 87 1000 1600 4050 10900
2019-10-06 01:00 1.90 45 11800 (1994) 3 (1980) 1330 22 27 54 56 87 1000 1600 4050 10900
2019-10-06 00:30 1.90 45 11800 (1994) 3 (1980) 1330 22 27 54 56 87 1000 1600 4050 10900
2019-10-06 00:00 1.90 45 11800 (1994) 3 (1980) 1330 22 27 54 56 87 1000 1600 4050 10900

A total of 375 rows are displayed for years 1980 through 2018.

Trips for Salt River (Missouri), Center (05507800)

DateStartEndDistanceConditionDischargeHeightFishingDetails
Click for details2015-07-31 See Spillway Cincinnati Road Total trip distance: 7.0 miles7.0 High 9420 12.73 None NoneNone Ballard, Paige
Ballard, Webb
Edmond, Brian
Edmond, Julian
Hays, Chloe
Houseworth, Owen
Houseworth, Wyatt
Lichtenberg, Brady
Smith, Benson
Smith, Brianne
Smith, Keegan
Storts, Amy Jo
Storts, Kaleb
Storts, Kylie Jo
Zappala, Gianna
Ballard, Paige; Ballard, Webb; Edmond, Brian; Edmond, Julian; Hays, Chloe; Houseworth, Owen; Houseworth, Wyatt; Lichtenberg, Brady; Smith, Benson; Smith, Brianne; Smith, Keegan; Storts, Amy Jo; Storts, Kaleb; Storts, Kylie Jo; Zappala, Gianna
The Corps was releasing water from the flood gates of Cannon Dam and also generating power. We easily did this stretch in 2 1/2 hours without stopping.The Corps was releasing water from the flood gates of Cannon Dam and also generating power. We easily did this stretch in 2 1/2 hours without stopping. USGS Gauge Data:
Center (05507800)
Discharge: 9420
Height: 12.73
<b>USGS Gauge Data:</b></br />Center (05507800)<br />Discharge: 9420<br />Height: 12.73
Source: EdmondSource: Edmond
Click for details2019-07-25 See Spillway Cincinnati Road Total trip distance: 7.0 miles7.0 High 3210 7.57 None Edmond, Brian
Edmond, Julian
Grote, Camryn
Grote, Chase
Ince, Hunter
Jensen, Braden
Richards, Megan
Smith, Andy
Smith, Ayla
Smith, Benson
Smith, Brianne
Smith, Keegan
Zappala, Gary
Zappala, Gianna
Zappala, Grant
Zappala, Kim
Edmond, Brian; Edmond, Julian; Grote, Camryn; Grote, Chase; Ince, Hunter; Jensen, Braden; Richards, Megan; Smith, Andy; Smith, Ayla; Smith, Benson; Smith, Brianne; Smith, Keegan; Zappala, Gary; Zappala, Gianna; Zappala, Grant; Zappala, Kim
The Corps was releasing water from the flood gates but also started generating water at noon. The siren didn't sound but Brianne said she heard the turbines start up. The water was flowing well until about two miles from the take out where it slowed considerably, presumably because of the influence of the re-regulation dam (we've noticed this in past years, too).The Corps was releasing water from the flood gates but also started generating water at noon. The siren didn't sound but Brianne said she heard the turbines start up. The water was flowing well until about two miles from the take out where it slowed considerably, presumably because of the influence of the re-regulation dam (we've noticed this in past years, too). USGS Gauge Data:
Center (05507800)
Discharge: 3210
Height: 7.57
<b>USGS Gauge Data:</b></br />Center (05507800)<br />Discharge: 3210<br />Height: 7.57
Source: EdmondSource: Edmond
Click for details2014-07-28 Bluff View Rt H Total trip distance: 18.7 miles6.4 Good 3140 7.49 None NoneNone Bowe, Michelle
Bufford, Anne Marie
Edmond, Brian
Edmond, Julian
Grote, Bob
Grote, Chase
Grote, Hannah
Hays, Chloe
Smith, Benson
Smith, Brianne
Bowe, Michelle; Bufford, Anne Marie; Edmond, Brian; Edmond, Julian; Grote, Bob; Grote, Chase; Grote, Hannah; Hays, Chloe; Smith, Benson; Smith, Brianne
Some water was released from the re-regulation dam during this time, including right after we passed under the Rt A bridge. Because of the release of water, the gauge level varied widely (from 1400 cfs to nearly 8000 cfs).Some water was released from the re-regulation dam during this time, including right after we passed under the Rt A bridge. Because of the release of water, the gauge level varied widely (from 1400 cfs to nearly 8000 cfs). USGS Gauge Data:
Center (05507800)
Discharge: 3140
Height: 7.49
<b>USGS Gauge Data:</b></br />Center (05507800)<br />Discharge: 3140<br />Height: 7.49
Source: EdmondSource: Edmond
Click for details2017-07-25 See Spillway Cincinnati Road Total trip distance: 7.0 miles7.0 Good 190 2.62 None NoneNone Edmond, Brian
Edmond, Julian
Grote, Camryn
Houseworth, Owen
Houseworth, Wyatt
Luebrecht, Olivia
Williamson, Lucy
Zappala, Gary
Zappala, Gianna
Zappala, Grant
Zappala, Kim
Edmond, Brian; Edmond, Julian; Grote, Camryn; Houseworth, Owen; Houseworth, Wyatt; Luebrecht, Olivia; Williamson, Lucy; Zappala, Gary; Zappala, Gianna; Zappala, Grant; Zappala, Kim
Power generation started a little before the scheduled date and carried us down the river just fine. The water was cool and refreshing and most of the kids spent the better part of the day floating downstream in their jackets instead of in their boats. There is a long, slow pool near the end of the trip, between "Grass Island" and the takeout, about a mile further downstream.Power generation started a little before the scheduled date and carried us down the river just fine. The water was cool and refreshing and most of the kids spent the better part of the day floating downstream in their jackets instead of in their boats. There is a long, slow pool near the end of the trip, between USGS Gauge Data:
Center (05507800)
Discharge: 190
Height: 2.62
<b>USGS Gauge Data:</b></br />Center (05507800)<br />Discharge: 190<br />Height: 2.62
Source: EdmondSource: Edmond
Click for details2016-07-28 See Spillway Cincinnati Road Total trip distance: 7.0 miles7.0 Good 88 2.11 None NoneNone Ballard, Paige
Edmond, Brian
Edmond, Julian
Grote, Chase
Grote, Hannah
Zappala, Gianna
Ballard, Paige; Edmond, Brian; Edmond, Julian; Grote, Chase; Grote, Hannah; Zappala, Gianna
Cannon Dam was generating, but only in the afternoon. Water level read from 1600 hours, about halfway through the trip.Cannon Dam was generating, but only in the afternoon. Water level read from 1600 hours, about halfway through the trip. USGS Gauge Data:
Center (05507800)
Discharge: 88
Height: 2.11
<b>USGS Gauge Data:</b></br />Center (05507800)<br />Discharge: 88<br />Height: 2.11
Source: EdmondSource: Edmond
Click for details2016-07-26 See Spillway Cincinnati Road Total trip distance: 7.0 miles7.0 Good 77 2.05 None NoneNone Ballard, Christina
Edmond, Brian
Edmond, Julian
Grote, Bob
Grote, Camryn
Ince, Hunter
Ince, Jessica
Luebrecht, Olivia
Mills, Jerri Ann
Mills, Kevin
Smith, Andy
Smith, Benson
Smith, Keegan
Storts, Amy Jo
Ballard, Christina; Edmond, Brian; Edmond, Julian; Grote, Bob; Grote, Camryn; Ince, Hunter; Ince, Jessica; Luebrecht, Olivia; Mills, Jerri Ann; Mills, Kevin; Smith, Andy; Smith, Benson; Smith, Keegan; Storts, Amy Jo
Cannon Dam was generating in the afternoon. We hit the wave of water, which moved along at 3+ mph for most of the day. Towards the end, the current subsided, probably because we were close to the re-regulation dam. Water level read from 1600 hours, about halfway through the trip.Cannon Dam was generating in the afternoon. We hit the wave of water, which moved along at 3+ mph for most of the day. Towards the end, the current subsided, probably because we were close to the re-regulation dam. Water level read from 1600 hours, about halfway through the trip. USGS Gauge Data:
Center (05507800)
Discharge: 77
Height: 2.05
<b>USGS Gauge Data:</b></br />Center (05507800)<br />Discharge: 77<br />Height: 2.05
Source: EdmondSource: Edmond

A total of 6 rows are displayed.

Trip Summary for Salt River (Missouri), Center (05507800)

Miles41.4
Trips6
People35
Dates6
Years5
Months1
Rows6
Sources1

Condition Descriptions

Fishing Conditions

Fish Species

Notes

Classic Trip List

The classic River Trips application is still available for use. It is updated with the new system using a data retrofit. It is no longer maintained. The original River Trips application is no longer updated (as of 1 Dec 2016) but can be checked for errors or for the condition of the data before it was converted to the new system.